Time;durP1;ratioP1;P1;durP2;ratioP2;P2;SDS_P1;SDS_P2;PMS_P1;PMS_P2;Temp;Humidity;BMP_temperature;BMP_pressure;BME280_temperature;BME280_humidity;BME280_pressure;Samples;Min_cycle;Max_cycle;Signal;HPM_P1;HPM_P2
2022/04/26 03:38:33;;;;;;;31.50001;24.55;;;;;;;8.62;83.14551;94720.58;;;;
2022/04/26 03:39:34;;;;;;;31.50001;24.55;;;;;;;8.62;83.14551;94720.58;;;;
2022/04/26 03:40:35;;;;;;;31.50001;24.55;;;;;;;8.62;83.14551;94720.58;;;;
2022/04/26 03:41:35;;;;;;;31.50001;24.55;;;;;;;8.62;83.14551;94720.58;;;;
2022/04/26 03:42:36;;;;;;;31.50001;24.55;;;;;;;8.62;83.14551;94720.58;;;;
2022/04/26 03:43:37;;;;;;;27.4;22.5;;;;;;;8.71;83.2793;94720.46;;;;
2022/04/26 03:44:38;;;;;;;27.4;22.5;;;;;;;8.71;83.2793;94720.46;;;;
2022/04/26 03:45:38;;;;;;;27.4;22.5;;;;;;;8.71;83.2793;94720.46;;;;
2022/04/26 03:46:39;;;;;;;27.4;22.5;;;;;;;8.71;83.2793;94720.46;;;;
2022/04/26 03:47:39;;;;;;;27.4;22.5;;;;;;;8.71;83.2793;94720.46;;;;
2022/04/26 03:48:40;;;;;;;27.4;22.5;;;;;;;8.71;83.2793;94720.46;;;;
2022/04/26 03:49:40;;;;;;;27.4;22.5;;;;;;;8.71;83.2793;94720.46;;;;
2022/04/26 03:50:41;;;;;;;27.4;22.5;;;;;;;8.71;83.2793;94720.46;;;;
2022/04/26 03:51:41;;;;;;;27.4;22.5;;;;;;;8.71;83.2793;94720.46;;;;
2022/04/26 03:52:41;;;;;;;27.4;22.5;;;;;;;8.71;83.2793;94720.46;;;;
2022/04/26 03:53:42;;;;;;;27.4;22.5;;;;;;;8.71;83.2793;94720.46;;;;
2022/04/26 03:54:42;;;;;;;27.4;22.5;;;;;;;8.71;83.2793;94720.46;;;;
2022/04/26 03:55:43;;;;;;;27.4;22.5;;;;;;;8.71;83.2793;94720.46;;;;
2022/04/26 03:56:43;;;;;;;27.4;22.5;;;;;;;8.71;83.2793;94720.46;;;;
2022/04/26 03:57:44;;;;;;;27.4;22.5;;;;;;;8.71;83.2793;94720.46;;;;
2022/04/26 03:58:44;;;;;;;27.4;22.5;;;;;;;8.71;83.2793;94720.46;;;;
2022/04/26 03:59:45;;;;;;;27.4;22.5;;;;;;;8.71;83.2793;94720.46;;;;
2022/04/26 04:00:45;;;;;;;27.4;22.5;;;;;;;8.71;83.2793;94720.46;;;;
2022/04/26 04:01:46;;;;;;;27.4;22.5;;;;;;;8.71;83.2793;94720.46;;;;
2022/04/26 04:02:47;;;;;;;27.4;22.5;;;;;;;8.71;83.2793;94720.46;;;;
2022/04/26 04:03:47;;;;;;;27.4;22.5;;;;;;;8.71;83.2793;94720.46;;;;
2022/04/26 04:04:48;;;;;;;27.4;22.5;;;;;;;8.71;83.2793;94720.46;;;;
2022/04/26 04:05:48;;;;;;;26.75;21.65;;;;;;;8.67;83.63477;94721.88;;;;
2022/04/26 04:06:49;;;;;;;26.75;21.65;;;;;;;8.67;83.63477;94721.88;;;;
2022/04/26 04:07:50;;;;;;;26.75;21.65;;;;;;;8.67;83.63477;94721.88;;;;
2022/04/26 04:08:50;;;;;;;26.75;21.65;;;;;;;8.67;83.63477;94721.88;;;;
2022/04/26 04:09:52;;;;;;;26.75;21.65;;;;;;;8.67;83.63477;94721.88;;;;
2022/04/26 04:10:52;;;;;;;26.75;21.65;;;;;;;8.67;83.63477;94721.88;;;;
2022/04/26 04:11:53;;;;;;;26.75;21.65;;;;;;;8.67;83.63477;94721.88;;;;
2022/04/26 04:12:53;;;;;;;26.75;21.65;;;;;;;8.67;83.63477;94721.88;;;;
2022/04/26 04:13:54;;;;;;;26.75;21.65;;;;;;;8.67;83.63477;94721.88;;;;
2022/04/26 04:14:54;;;;;;;26.75;21.65;;;;;;;8.67;83.63477;94721.88;;;;
2022/04/26 04:15:56;;;;;;;29.7;22.2;;;;;;;8.66;83.9707;94732.89;;;;
2022/04/26 04:16:57;;;;;;;29.7;22.2;;;;;;;8.66;83.9707;94732.89;;;;
2022/04/26 04:17:58;;;;;;;29.7;22.2;;;;;;;8.66;83.9707;94732.89;;;;
2022/04/26 04:19:32;;;;;;;29.7;22.2;;;;;;;8.66;83.9707;94732.89;;;;
2022/04/26 04:20:34;;;;;;;29.7;22.2;;;;;;;8.66;83.9707;94732.89;;;;
2022/04/26 04:21:35;;;;;;;29.7;22.2;;;;;;;8.66;83.9707;94732.89;;;;
2022/04/26 04:22:35;;;;;;;29.7;22.2;;;;;;;8.66;83.9707;94732.89;;;;
2022/04/26 04:23:36;;;;;;;29.7;22.2;;;;;;;8.66;83.9707;94732.89;;;;
2022/04/26 04:24:37;;;;;;;29.7;22.2;;;;;;;8.66;83.9707;94732.89;;;;
2022/04/26 04:25:37;;;;;;;29.7;22.2;;;;;;;8.66;83.9707;94732.89;;;;
2022/04/26 04:26:38;;;;;;;27.4;21.55;;;;;;;8.76;84.09668;94741.99;;;;
2022/04/26 04:27:38;;;;;;;27.4;21.55;;;;;;;8.76;84.09668;94741.99;;;;
2022/04/26 04:28:39;;;;;;;27.4;21.55;;;;;;;8.76;84.09668;94741.99;;;;
2022/04/26 04:29:39;;;;;;;27.4;21.55;;;;;;;8.76;84.09668;94741.99;;;;
2022/04/26 04:30:40;;;;;;;27.4;21.55;;;;;;;8.76;84.09668;94741.99;;;;
2022/04/26 04:31:41;;;;;;;27.4;21.55;;;;;;;8.76;84.09668;94741.99;;;;
2022/04/26 04:32:41;;;;;;;27.4;21.55;;;;;;;8.76;84.09668;94741.99;;;;
2022/04/26 04:33:43;;;;;;;27.4;21.55;;;;;;;8.76;84.09668;94741.99;;;;
2022/04/26 04:34:44;;;;;;;27.4;21.55;;;;;;;8.76;84.09668;94741.99;;;;
2022/04/26 04:35:44;;;;;;;27.4;21.55;;;;;;;8.76;84.09668;94741.99;;;;
2022/04/26 04:36:45;;;;;;;27.4;21.55;;;;;;;8.76;84.09668;94741.99;;;;
2022/04/26 04:37:47;;;;;;;28.35;21.8;;;;;;;8.81;84.00195;94748.81;;;;
2022/04/26 04:38:48;;;;;;;28.35;21.8;;;;;;;8.81;84.00195;94748.81;;;;
2022/04/26 04:39:48;;;;;;;28.35;21.8;;;;;;;8.81;84.00195;94748.81;;;;
2022/04/26 04:40:49;;;;;;;28.35;21.8;;;;;;;8.81;84.00195;94748.81;;;;
2022/04/26 04:41:49;;;;;;;28.35;21.8;;;;;;;8.81;84.00195;94748.81;;;;
2022/04/26 04:42:50;;;;;;;28.35;21.8;;;;;;;8.81;84.00195;94748.81;;;;
2022/04/26 04:43:50;;;;;;;28.35;21.8;;;;;;;8.81;84.00195;94748.81;;;;
2022/04/26 04:44:51;;;;;;;28.35;21.8;;;;;;;8.81;84.00195;94748.81;;;;
2022/04/26 04:45:51;;;;;;;28.35;21.8;;;;;;;8.81;84.00195;94748.81;;;;
2022/04/26 04:46:52;;;;;;;28.35;21.8;;;;;;;8.81;84.00195;94748.81;;;;
2022/04/26 04:47:52;;;;;;;25.95;20.75;;;;;;;8.9;84.26074;94752.91;;;;
2022/04/26 04:48:53;;;;;;;25.95;20.75;;;;;;;8.9;84.26074;94752.91;;;;
2022/04/26 04:49:53;;;;;;;25.95;20.75;;;;;;;8.9;84.26074;94752.91;;;;
2022/04/26 04:50:54;;;;;;;25.95;20.75;;;;;;;8.9;84.26074;94752.91;;;;
2022/04/26 04:51:54;;;;;;;25.95;20.75;;;;;;;8.9;84.26074;94752.91;;;;
2022/04/26 04:52:56;;;;;;;25.95;20.75;;;;;;;8.9;84.26074;94752.91;;;;
2022/04/26 04:53:56;;;;;;;25.95;20.75;;;;;;;8.9;84.26074;94752.91;;;;
2022/04/26 04:54:57;;;;;;;25.95;20.75;;;;;;;8.9;84.26074;94752.91;;;;
2022/04/26 04:55:58;;;;;;;25.95;20.75;;;;;;;8.9;84.26074;94752.91;;;;
2022/04/26 04:56:58;;;;;;;25.95;20.75;;;;;;;8.9;84.26074;94752.91;;;;
2022/04/26 04:57:58;;;;;;;25.95;20.75;;;;;;;8.9;84.26074;94752.91;;;;
2022/04/26 04:58:59;;;;;;;27.05;21.05;;;;;;;9.08;84.27441;94758.12;;;;
2022/04/26 04:59:59;;;;;;;27.05;21.05;;;;;;;9.08;84.27441;94758.12;;;;
2022/04/26 05:01:00;;;;;;;27.05;21.05;;;;;;;9.08;84.27441;94758.12;;;;
2022/04/26 05:02:00;;;;;;;27.05;21.05;;;;;;;9.08;84.27441;94758.12;;;;
2022/04/26 05:03:01;;;;;;;27.05;21.05;;;;;;;9.08;84.27441;94758.12;;;;
2022/04/26 05:04:02;;;;;;;27.05;21.05;;;;;;;9.08;84.27441;94758.12;;;;
2022/04/26 05:05:02;;;;;;;27.05;21.05;;;;;;;9.08;84.27441;94758.12;;;;
2022/04/26 05:06:03;;;;;;;27.05;21.05;;;;;;;9.08;84.27441;94758.12;;;;
2022/04/26 05:07:04;;;;;;;27.05;21.05;;;;;;;9.08;84.27441;94758.12;;;;
2022/04/26 05:08:04;;;;;;;27.05;21.05;;;;;;;9.08;84.27441;94758.12;;;;
2022/04/26 05:09:08;;;;;;;29.5;21.45;;;;;;;9.38;84.08789;94762.73;;;;
2022/04/26 05:10:09;;;;;;;29.5;21.45;;;;;;;9.38;84.08789;94762.73;;;;
2022/04/26 05:11:10;;;;;;;29.5;21.45;;;;;;;9.38;84.08789;94762.73;;;;
2022/04/26 05:12:10;;;;;;;29.5;21.45;;;;;;;9.38;84.08789;94762.73;;;;
2022/04/26 05:13:11;;;;;;;29.5;21.45;;;;;;;9.38;84.08789;94762.73;;;;
2022/04/26 05:14:12;;;;;;;29.5;21.45;;;;;;;9.38;84.08789;94762.73;;;;
2022/04/26 05:15:12;;;;;;;29.5;21.45;;;;;;;9.38;84.08789;94762.73;;;;
2022/04/26 05:16:12;;;;;;;29.5;21.45;;;;;;;9.38;84.08789;94762.73;;;;
2022/04/26 05:17:13;;;;;;;29.5;21.45;;;;;;;9.38;84.08789;94762.73;;;;
2022/04/26 05:18:14;;;;;;;29.5;21.45;;;;;;;9.38;84.08789;94762.73;;;;
2022/04/26 05:19:14;;;;;;;29.5;21.45;;;;;;;9.38;84.08789;94762.73;;;;
2022/04/26 05:20:15;;;;;;;29.5;21.45;;;;;;;9.38;84.08789;94762.73;;;;
2022/04/26 05:21:16;;;;;;;29.5;21.45;;;;;;;9.38;84.08789;94762.73;;;;
2022/04/26 05:22:16;;;;;;;29.5;21.45;;;;;;;9.38;84.08789;94762.73;;;;
2022/04/26 05:28:29;;;;;;;29.5;21.45;;;;;;;9.38;84.08789;94762.73;;;;
2022/04/26 05:29:30;;;;;;;29.5;21.45;;;;;;;9.38;84.08789;94762.73;;;;
2022/04/26 05:30:30;;;;;;;23.1;20.45;;;;;;;9.94;83.55762;94768.06;;;;
2022/04/26 05:31:31;;;;;;;23.1;20.45;;;;;;;9.94;83.55762;94768.06;;;;
2022/04/26 05:32:31;;;;;;;23.1;20.45;;;;;;;9.94;83.55762;94768.06;;;;
2022/04/26 05:33:32;;;;;;;23.1;20.45;;;;;;;9.94;83.55762;94768.06;;;;
2022/04/26 05:34:32;;;;;;;23.1;20.45;;;;;;;9.94;83.55762;94768.06;;;;
2022/04/26 05:35:33;;;;;;;23.1;20.45;;;;;;;9.94;83.55762;94768.06;;;;
2022/04/26 05:36:33;;;;;;;23.1;20.45;;;;;;;9.94;83.55762;94768.06;;;;
2022/04/26 05:37:34;;;;;;;23.1;20.45;;;;;;;9.94;83.55762;94768.06;;;;
2022/04/26 05:38:34;;;;;;;23.1;20.45;;;;;;;9.94;83.55762;94768.06;;;;
2022/04/26 05:39:35;;;;;;;23.1;20.45;;;;;;;9.94;83.55762;94768.06;;;;
2022/04/26 05:40:35;;;;;;;23.1;20.45;;;;;;;9.94;83.55762;94768.06;;;;
2022/04/26 05:41:36;;;;;;;22.7;20.05;;;;;;;10.02;83.66797;94764.15;;;;
2022/04/26 05:42:37;;;;;;;22.7;20.05;;;;;;;10.02;83.66797;94764.15;;;;
2022/04/26 05:43:37;;;;;;;22.7;20.05;;;;;;;10.02;83.66797;94764.15;;;;
2022/04/26 05:44:38;;;;;;;22.7;20.05;;;;;;;10.02;83.66797;94764.15;;;;
2022/04/26 05:45:39;;;;;;;22.7;20.05;;;;;;;10.02;83.66797;94764.15;;;;
2022/04/26 05:46:39;;;;;;;22.7;20.05;;;;;;;10.02;83.66797;94764.15;;;;
2022/04/26 05:47:40;;;;;;;22.7;20.05;;;;;;;10.02;83.66797;94764.15;;;;
2022/04/26 05:48:40;;;;;;;22.7;20.05;;;;;;;10.02;83.66797;94764.15;;;;
2022/04/26 05:49:41;;;;;;;22.7;20.05;;;;;;;10.02;83.66797;94764.15;;;;
2022/04/26 05:50:41;;;;;;;22.7;20.05;;;;;;;10.02;83.66797;94764.15;;;;
2022/04/26 05:51:42;;;;;;;22.7;20.05;;;;;;;10.02;83.66797;94764.15;;;;
2022/04/26 05:52:42;;;;;;;23.2;19.35;;;;;;;10.1;83.67285;94773.61;;;;
2022/04/26 05:53:43;;;;;;;23.2;19.35;;;;;;;10.1;83.67285;94773.61;;;;
2022/04/26 05:54:43;;;;;;;23.2;19.35;;;;;;;10.1;83.67285;94773.61;;;;
2022/04/26 05:55:44;;;;;;;23.2;19.35;;;;;;;10.1;83.67285;94773.61;;;;
2022/04/26 05:56:44;;;;;;;23.2;19.35;;;;;;;10.1;83.67285;94773.61;;;;
2022/04/26 05:57:45;;;;;;;23.2;19.35;;;;;;;10.1;83.67285;94773.61;;;;
2022/04/26 05:58:46;;;;;;;23.2;19.35;;;;;;;10.1;83.67285;94773.61;;;;
2022/04/26 05:59:46;;;;;;;23.2;19.35;;;;;;;10.1;83.67285;94773.61;;;;
2022/04/26 06:00:47;;;;;;;23.2;19.35;;;;;;;10.1;83.67285;94773.61;;;;
2022/04/26 06:01:48;;;;;;;23.2;19.35;;;;;;;10.1;83.67285;94773.61;;;;
2022/04/26 06:02:50;;;;;;;22.9;19.85;;;;;;;10.11;83.88867;94786.44;;;;
2022/04/26 06:03:50;;;;;;;22.9;19.85;;;;;;;10.11;83.88867;94786.44;;;;
2022/04/26 06:04:50;;;;;;;22.9;19.85;;;;;;;10.11;83.88867;94786.44;;;;
2022/04/26 06:05:55;;;;;;;22.9;19.85;;;;;;;10.11;83.88867;94786.44;;;;
2022/04/26 06:06:55;;;;;;;22.9;19.85;;;;;;;10.11;83.88867;94786.44;;;;
2022/04/26 06:07:57;;;;;;;22.9;19.85;;;;;;;10.11;83.88867;94786.44;;;;
2022/04/26 06:08:57;;;;;;;22.9;19.85;;;;;;;10.11;83.88867;94786.44;;;;
2022/04/26 06:09:57;;;;;;;22.9;19.85;;;;;;;10.11;83.88867;94786.44;;;;
2022/04/26 06:10:59;;;;;;;22.9;19.85;;;;;;;10.11;83.88867;94786.44;;;;
2022/04/26 06:11:59;;;;;;;22.9;19.85;;;;;;;10.11;83.88867;94786.44;;;;
2022/04/26 06:13:00;;;;;;;22.9;19.85;;;;;;;10.11;83.88867;94786.44;;;;
2022/04/26 06:14:01;;;;;;;22.9;19.85;;;;;;;10.11;83.88867;94786.44;;;;
2022/04/26 06:15:02;;;;;;;22.9;19.85;;;;;;;10.11;83.88867;94786.44;;;;
2022/04/26 06:16:02;;;;;;;22.9;19.85;;;;;;;10.11;83.88867;94786.44;;;;
2022/04/26 06:17:04;;;;;;;22.9;19.85;;;;;;;10.11;83.88867;94786.44;;;;
2022/04/26 06:18:04;;;;;;;22.9;19.85;;;;;;;10.11;83.88867;94786.44;;;;
2022/04/26 06:19:05;;;;;;;22.9;19.85;;;;;;;10.11;83.88867;94786.44;;;;
2022/04/26 06:20:06;;;;;;;22.9;19.85;;;;;;;10.11;83.88867;94786.44;;;;
2022/04/26 06:21:07;;;;;;;22.9;19.85;;;;;;;10.11;83.88867;94786.44;;;;
2022/04/26 06:22:08;;;;;;;22.9;19.85;;;;;;;10.11;83.88867;94786.44;;;;
2022/04/26 06:23:09;;;;;;;22.9;19.85;;;;;;;10.11;83.88867;94786.44;;;;
2022/04/26 06:24:10;;;;;;;22.9;19.85;;;;;;;10.11;83.88867;94786.44;;;;
2022/04/26 06:25:10;;;;;;;22.9;19.85;;;;;;;10.11;83.88867;94786.44;;;;
2022/04/26 06:26:11;;;;;;;22.9;19.85;;;;;;;10.11;83.88867;94786.44;;;;
2022/04/26 06:27:12;;;;;;;22.9;19.85;;;;;;;10.11;83.88867;94786.44;;;;
2022/04/26 06:28:12;;;;;;;22.9;19.85;;;;;;;10.11;83.88867;94786.44;;;;
2022/04/26 06:29:13;;;;;;;22.9;19.85;;;;;;;10.11;83.88867;94786.44;;;;
2022/04/26 06:30:15;;;;;;;22.9;19.85;;;;;;;10.11;83.88867;94786.44;;;;
2022/04/26 06:31:15;;;;;;;22.9;19.85;;;;;;;10.11;83.88867;94786.44;;;;
2022/04/26 06:32:16;;;;;;;22.9;19.85;;;;;;;10.11;83.88867;94786.44;;;;
2022/04/26 06:33:17;;;;;;;22.9;19.85;;;;;;;10.11;83.88867;94786.44;;;;
2022/04/26 06:34:17;;;;;;;22.9;19.85;;;;;;;10.11;83.88867;94786.44;;;;
2022/04/26 06:35:18;;;;;;;21.35;18.65;;;;;;;10.63;83.93457;94792.77;;;;
2022/04/26 06:36:18;;;;;;;21.35;18.65;;;;;;;10.63;83.93457;94792.77;;;;
2022/04/26 06:37:19;;;;;;;21.35;18.65;;;;;;;10.63;83.93457;94792.77;;;;
2022/04/26 06:38:22;;;;;;;21.35;18.65;;;;;;;10.63;83.93457;94792.77;;;;
2022/04/26 06:39:22;;;;;;;21.35;18.65;;;;;;;10.63;83.93457;94792.77;;;;
2022/04/26 06:40:23;;;;;;;21.35;18.65;;;;;;;10.63;83.93457;94792.77;;;;
2022/04/26 06:41:23;;;;;;;21.35;18.65;;;;;;;10.63;83.93457;94792.77;;;;
2022/04/26 06:42:24;;;;;;;21.35;18.65;;;;;;;10.63;83.93457;94792.77;;;;
2022/04/26 06:43:24;;;;;;;21.35;18.65;;;;;;;10.63;83.93457;94792.77;;;;
2022/04/26 06:44:25;;;;;;;21.35;18.65;;;;;;;10.63;83.93457;94792.77;;;;
2022/04/26 06:45:25;;;;;;;20.1;17.85;;;;;;;11.23;83.16309;94786.44;;;;
2022/04/26 06:46:26;;;;;;;20.1;17.85;;;;;;;11.23;83.16309;94786.44;;;;
2022/04/26 06:47:26;;;;;;;20.1;17.85;;;;;;;11.23;83.16309;94786.44;;;;
2022/04/26 06:48:27;;;;;;;20.1;17.85;;;;;;;11.23;83.16309;94786.44;;;;
2022/04/26 06:49:28;;;;;;;20.1;17.85;;;;;;;11.23;83.16309;94786.44;;;;
2022/04/26 06:50:28;;;;;;;20.1;17.85;;;;;;;11.23;83.16309;94786.44;;;;
2022/04/26 06:51:30;;;;;;;20.1;17.85;;;;;;;11.23;83.16309;94786.44;;;;
2022/04/26 06:52:32;;;;;;;20.1;17.85;;;;;;;11.23;83.16309;94786.44;;;;
2022/04/26 06:53:34;;;;;;;20.1;17.85;;;;;;;11.23;83.16309;94786.44;;;;
2022/04/26 06:54:35;;;;;;;20.1;17.85;;;;;;;11.23;83.16309;94786.44;;;;
2022/04/26 06:55:35;;;;;;;20.1;17.85;;;;;;;11.23;83.16309;94786.44;;;;
2022/04/26 06:56:36;;;;;;;19.1;17.2;;;;;;;12.27;81.69922;94786.03;;;;
2022/04/26 06:57:37;;;;;;;19.1;17.2;;;;;;;12.27;81.69922;94786.03;;;;
2022/04/26 06:58:39;;;;;;;19.1;17.2;;;;;;;12.27;81.69922;94786.03;;;;
2022/04/26 06:59:39;;;;;;;19.1;17.2;;;;;;;12.27;81.69922;94786.03;;;;
2022/04/26 07:00:40;;;;;;;19.1;17.2;;;;;;;12.27;81.69922;94786.03;;;;
2022/04/26 07:01:41;;;;;;;19.1;17.2;;;;;;;12.27;81.69922;94786.03;;;;
2022/04/26 07:02:41;;;;;;;19.1;17.2;;;;;;;12.27;81.69922;94786.03;;;;
2022/04/26 07:03:42;;;;;;;19.1;17.2;;;;;;;12.27;81.69922;94786.03;;;;
2022/04/26 07:04:42;;;;;;;19.1;17.2;;;;;;;12.27;81.69922;94786.03;;;;
2022/04/26 07:05:44;;;;;;;19.1;17.2;;;;;;;12.27;81.69922;94786.03;;;;
2022/04/26 07:06:45;;;;;;;11.5;10.35;;;;;;;13.12;80.41895;94775.4;;;;
2022/04/26 07:07:45;;;;;;;11.5;10.35;;;;;;;13.12;80.41895;94775.4;;;;
2022/04/26 07:08:46;;;;;;;11.5;10.35;;;;;;;13.12;80.41895;94775.4;;;;
2022/04/26 07:09:47;;;;;;;11.5;10.35;;;;;;;13.12;80.41895;94775.4;;;;
2022/04/26 07:10:47;;;;;;;11.5;10.35;;;;;;;13.12;80.41895;94775.4;;;;
2022/04/26 07:11:48;;;;;;;11.5;10.35;;;;;;;13.12;80.41895;94775.4;;;;
2022/04/26 07:12:48;;;;;;;11.5;10.35;;;;;;;13.12;80.41895;94775.4;;;;
2022/04/26 07:13:52;;;;;;;11.5;10.35;;;;;;;13.12;80.41895;94775.4;;;;
2022/04/26 07:14:52;;;;;;;11.5;10.35;;;;;;;13.12;80.41895;94775.4;;;;
2022/04/26 07:15:53;;;;;;;11.5;10.35;;;;;;;13.12;80.41895;94775.4;;;;
2022/04/26 07:16:53;;;;;;;11.5;10.35;;;;;;;13.12;80.41895;94775.4;;;;
2022/04/26 07:17:54;;;;;;;11.35;10.25;;;;;;;13.87;79.01563;94779.88;;;;
2022/04/26 07:18:55;;;;;;;11.35;10.25;;;;;;;13.87;79.01563;94779.88;;;;
2022/04/26 07:19:56;;;;;;;11.35;10.25;;;;;;;13.87;79.01563;94779.88;;;;
2022/04/26 07:20:57;;;;;;;11.35;10.25;;;;;;;13.87;79.01563;94779.88;;;;
2022/04/26 07:21:58;;;;;;;11.35;10.25;;;;;;;13.87;79.01563;94779.88;;;;
2022/04/26 07:22:58;;;;;;;11.35;10.25;;;;;;;13.87;79.01563;94779.88;;;;
2022/04/26 07:23:59;;;;;;;11.35;10.25;;;;;;;13.87;79.01563;94779.88;;;;
2022/04/26 07:24:59;;;;;;;11.35;10.25;;;;;;;13.87;79.01563;94779.88;;;;
2022/04/26 07:26:00;;;;;;;11.35;10.25;;;;;;;13.87;79.01563;94779.88;;;;
2022/04/26 07:27:00;;;;;;;11.35;10.25;;;;;;;13.87;79.01563;94779.88;;;;
2022/04/26 07:28:01;;;;;;;11.35;10.25;;;;;;;13.87;79.01563;94779.88;;;;
2022/04/26 07:29:02;;;;;;;9.35;8.549999;;;;;;;15.11;77.27148;94785.17;;;;
2022/04/26 07:30:03;;;;;;;9.35;8.549999;;;;;;;15.11;77.27148;94785.17;;;;
2022/04/26 07:31:05;;;;;;;9.35;8.549999;;;;;;;15.11;77.27148;94785.17;;;;
2022/04/26 07:32:06;;;;;;;9.35;8.549999;;;;;;;15.11;77.27148;94785.17;;;;
2022/04/26 07:38:20;;;;;;;0;0;;;;;;;0;0;0;;;;
2022/04/26 07:39:21;;;;;;;0;0;;;;;;;0;0;0;;;;
2022/04/26 07:40:21;;;;;;;0;0;;;;;;;0;0;0;;;;
2022/04/26 07:41:22;;;;;;;0;0;;;;;;;0;0;0;;;;
2022/04/26 07:42:23;;;;;;;0;0;;;;;;;0;0;0;;;;
2022/04/26 07:43:23;;;;;;;0;0;;;;;;;0;0;0;;;;
2022/04/26 07:44:23;;;;;;;0;0;;;;;;;0;0;0;;;;
2022/04/26 07:45:24;;;;;;;0;0;;;;;;;0;0;0;;;;
2022/04/26 07:46:25;;;;;;;0;0;;;;;;;0;0;0;;;;
2022/04/26 07:47:26;;;;;;;0;0;;;;;;;0;0;0;;;;
2022/04/26 07:48:29;;;;;;;0;0;;;;;;;0;0;0;;;;
2022/04/26 07:49:30;;;;;;;0;0;;;;;;;0;0;0;;;;
2022/04/26 07:50:30;;;;;;;0;0;;;;;;;0;0;0;;;;
2022/04/26 07:51:31;;;;;;;0;0;;;;;;;0;0;0;;;;
2022/04/26 07:52:33;;;;;;;0;0;;;;;;;0;0;0;;;;
2022/04/26 07:53:33;;;;;;;0;0;;;;;;;0;0;0;;;;
2022/04/26 07:54:36;;;;;;;0;0;;;;;;;0;0;0;;;;
2022/04/26 07:55:36;;;;;;;0;0;;;;;;;0;0;0;;;;
2022/04/26 07:56:37;;;;;;;0;0;;;;;;;0;0;0;;;;
2022/04/26 07:57:39;;;;;;;0;0;;;;;;;0;0;0;;;;
2022/04/26 07:58:39;;;;;;;0;0;;;;;;;0;0;0;;;;
2022/04/26 07:59:40;;;;;;;0;0;;;;;;;0;0;0;;;;
2022/04/26 08:00:40;;;;;;;0;0;;;;;;;0;0;0;;;;
2022/04/26 08:01:41;;;;;;;0;0;;;;;;;0;0;0;;;;
2022/04/26 08:02:42;;;;;;;0;0;;;;;;;0;0;0;;;;
2022/04/26 08:03:42;;;;;;;0;0;;;;;;;0;0;0;;;;
2022/04/26 08:04:43;;;;;;;0;0;;;;;;;0;0;0;;;;
2022/04/26 08:05:43;;;;;;;0;0;;;;;;;0;0;0;;;;
2022/04/26 08:06:44;;;;;;;0;0;;;;;;;0;0;0;;;;
2022/04/26 08:07:44;;;;;;;0;0;;;;;;;0;0;0;;;;
2022/04/26 08:08:45;;;;;;;0;0;;;;;;;0;0;0;;;;
2022/04/26 08:09:46;;;;;;;4.45;4.05;;;;;;;14.52;76.64063;94813.9;;;;
2022/04/26 08:10:46;;;;;;;4.45;4.05;;;;;;;14.52;76.64063;94813.9;;;;
2022/04/26 08:11:47;;;;;;;4.45;4.05;;;;;;;14.52;76.64063;94813.9;;;;
2022/04/26 08:12:47;;;;;;;4.45;4.05;;;;;;;14.52;76.64063;94813.9;;;;
2022/04/26 08:13:48;;;;;;;4.45;4.05;;;;;;;14.52;76.64063;94813.9;;;;
2022/04/26 08:14:49;;;;;;;4.45;4.05;;;;;;;14.52;76.64063;94813.9;;;;
2022/04/26 08:15:49;;;;;;;4.45;4.05;;;;;;;14.52;76.64063;94813.9;;;;
2022/04/26 08:16:50;;;;;;;4.45;4.05;;;;;;;14.52;76.64063;94813.9;;;;
2022/04/26 08:17:51;;;;;;;4.45;4.05;;;;;;;14.52;76.64063;94813.9;;;;
2022/04/26 08:18:51;;;;;;;4.45;4.05;;;;;;;14.52;76.64063;94813.9;;;;
2022/04/26 08:19:51;;;;;;;4.45;4.05;;;;;;;14.52;76.64063;94813.9;;;;
2022/04/26 08:20:52;;;;;;;3.65;3.35;;;;;;;13.94;76.65723;94814.36;;;;
2022/04/26 08:21:52;;;;;;;3.65;3.35;;;;;;;13.94;76.65723;94814.36;;;;
2022/04/26 08:22:53;;;;;;;3.65;3.35;;;;;;;13.94;76.65723;94814.36;;;;
2022/04/26 08:29:07;;;;;;;3.65;3.35;;;;;;;13.94;76.65723;94814.36;;;;
2022/04/26 08:30:07;;;;;;;3.65;3.35;;;;;;;13.94;76.65723;94814.36;;;;
2022/04/26 08:31:09;;;;;;;3.65;3.35;;;;;;;13.94;76.65723;94814.36;;;;
2022/04/26 08:32:10;;;;;;;3.65;3.35;;;;;;;13.94;76.65723;94814.36;;;;
2022/04/26 08:33:11;;;;;;;3.65;3.35;;;;;;;13.94;76.65723;94814.36;;;;
2022/04/26 08:34:11;;;;;;;3.65;3.35;;;;;;;13.94;76.65723;94814.36;;;;
2022/04/26 08:35:12;;;;;;;3.65;3.35;;;;;;;13.94;76.65723;94814.36;;;;
2022/04/26 08:36:15;;;;;;;3.65;3.35;;;;;;;13.94;76.65723;94814.36;;;;
2022/04/26 08:37:15;;;;;;;3.65;3.35;;;;;;;13.94;76.65723;94814.36;;;;
2022/04/26 08:38:16;;;;;;;3.65;3.35;;;;;;;13.94;76.65723;94814.36;;;;
2022/04/26 08:39:16;;;;;;;3.65;3.35;;;;;;;13.94;76.65723;94814.36;;;;
2022/04/26 08:40:17;;;;;;;3.65;3.35;;;;;;;13.94;76.65723;94814.36;;;;
2022/04/26 08:41:17;;;;;;;3.65;3.35;;;;;;;13.94;76.65723;94814.36;;;;
2022/04/26 08:42:18;;;;;;;3.7;3.4;;;;;;;13.08;76.75586;94838.39;;;;
2022/04/26 08:43:33;;;;;;;3.7;3.4;;;;;;;13.08;76.75586;94838.39;;;;
2022/04/26 08:44:38;;;;;;;3.7;3.4;;;;;;;13.08;76.75586;94838.39;;;;
2022/04/26 08:45:39;;;;;;;3.7;3.4;;;;;;;13.08;76.75586;94838.39;;;;
2022/04/26 08:51:54;;;;;;;3.7;3.4;;;;;;;13.08;76.75586;94838.39;;;;
2022/04/26 08:53:00;;;;;;;3.3;3;;;;;;;12.97;76.58594;94834.48;;;;
2022/04/26 08:54:01;;;;;;;3.3;3;;;;;;;12.97;76.58594;94834.48;;;;
2022/04/26 08:55:01;;;;;;;3.3;3;;;;;;;12.97;76.58594;94834.48;;;;
2022/04/26 08:56:03;;;;;;;3.3;3;;;;;;;12.97;76.58594;94834.48;;;;
2022/04/26 08:57:06;;;;;;;3.3;3;;;;;;;12.97;76.58594;94834.48;;;;
2022/04/26 08:58:08;;;;;;;3.3;3;;;;;;;12.97;76.58594;94834.48;;;;
2022/04/26 08:59:09;;;;;;;3.3;3;;;;;;;12.97;76.58594;94834.48;;;;
2022/04/26 09:00:11;;;;;;;3.3;3;;;;;;;12.97;76.58594;94834.48;;;;
2022/04/26 09:01:13;;;;;;;3.3;3;;;;;;;12.97;76.58594;94834.48;;;;
2022/04/26 09:02:16;;;;;;;3.3;3;;;;;;;12.97;76.58594;94834.48;;;;
2022/04/26 09:03:19;;;;;;;3.15;2.9;;;;;;;13.12;76.22461;94839.62;;;;
2022/04/26 09:04:19;;;;;;;3.15;2.9;;;;;;;13.12;76.22461;94839.62;;;;
2022/04/26 09:05:20;;;;;;;3.15;2.9;;;;;;;13.12;76.22461;94839.62;;;;
2022/04/26 09:06:21;;;;;;;3.15;2.9;;;;;;;13.12;76.22461;94839.62;;;;
2022/04/26 09:07:22;;;;;;;3.15;2.9;;;;;;;13.12;76.22461;94839.62;;;;
2022/04/26 09:08:28;;;;;;;3.15;2.9;;;;;;;13.12;76.22461;94839.62;;;;
2022/04/26 09:09:28;;;;;;;3.15;2.9;;;;;;;13.12;76.22461;94839.62;;;;
2022/04/26 09:10:30;;;;;;;3.15;2.9;;;;;;;13.12;76.22461;94839.62;;;;
2022/04/26 09:11:34;;;;;;;3.15;2.9;;;;;;;13.12;76.22461;94839.62;;;;
2022/04/26 09:12:35;;;;;;;3.15;2.9;;;;;;;13.12;76.22461;94839.62;;;;
2022/04/26 09:14:12;;;;;;;3.5;3.05;;;;;;;13.11;75.88965;94844.78;;;;
2022/04/26 09:15:30;;;;;;;3.5;3.05;;;;;;;13.11;75.88965;94844.78;;;;
2022/04/26 09:16:36;;;;;;;3.5;3.05;;;;;;;13.11;75.88965;94844.78;;;;
2022/04/26 09:17:37;;;;;;;3.5;3.05;;;;;;;13.11;75.88965;94844.78;;;;
2022/04/26 09:18:37;;;;;;;3.5;3.05;;;;;;;13.11;75.88965;94844.78;;;;
2022/04/26 09:19:38;;;;;;;3.5;3.05;;;;;;;13.11;75.88965;94844.78;;;;
2022/04/26 09:20:43;;;;;;;3.5;3.05;;;;;;;13.11;75.88965;94844.78;;;;
2022/04/26 09:21:44;;;;;;;3.5;3.05;;;;;;;13.11;75.88965;94844.78;;;;
2022/04/26 09:22:55;;;;;;;3.5;3.05;;;;;;;13.11;75.88965;94844.78;;;;
2022/04/26 09:23:58;;;;;;;3.5;3.05;;;;;;;13.11;75.88965;94844.78;;;;
2022/04/26 09:25:02;;;;;;;3.7;3.400001;;;;;;;12.91;76.10059;94848.69;;;;
2022/04/26 09:26:06;;;;;;;3.7;3.400001;;;;;;;12.91;76.10059;94848.69;;;;
2022/04/26 09:27:09;;;;;;;3.7;3.400001;;;;;;;12.91;76.10059;94848.69;;;;
2022/04/26 09:28:15;;;;;;;3.7;3.400001;;;;;;;12.91;76.10059;94848.69;;;;
2022/04/26 09:29:27;;;;;;;3.7;3.400001;;;;;;;12.91;76.10059;94848.69;;;;
2022/04/26 09:30:28;;;;;;;3.7;3.400001;;;;;;;12.91;76.10059;94848.69;;;;
2022/04/26 09:31:28;;;;;;;3.7;3.400001;;;;;;;12.91;76.10059;94848.69;;;;
2022/04/26 09:32:30;;;;;;;3.7;3.400001;;;;;;;12.91;76.10059;94848.69;;;;
2022/04/26 09:33:47;;;;;;;3.7;3.400001;;;;;;;12.91;76.10059;94848.69;;;;
2022/04/26 09:34:49;;;;;;;3.7;3.400001;;;;;;;12.91;76.10059;94848.69;;;;
2022/04/26 09:35:50;;;;;;;4.05;3.65;;;;;;;12.5;76.62109;94844.45;;;;
2022/04/26 09:36:59;;;;;;;4.05;3.65;;;;;;;12.5;76.62109;94844.45;;;;
2022/04/26 09:38:04;;;;;;;4.05;3.65;;;;;;;12.5;76.62109;94844.45;;;;
2022/04/26 09:39:07;;;;;;;4.05;3.65;;;;;;;12.5;76.62109;94844.45;;;;
2022/04/26 09:40:09;;;;;;;4.05;3.65;;;;;;;12.5;76.62109;94844.45;;;;
2022/04/26 09:41:11;;;;;;;4.05;3.65;;;;;;;12.5;76.62109;94844.45;;;;
2022/04/26 09:42:13;;;;;;;4.05;3.65;;;;;;;12.5;76.62109;94844.45;;;;
2022/04/26 09:43:15;;;;;;;4.05;3.65;;;;;;;12.5;76.62109;94844.45;;;;
2022/04/26 09:44:16;;;;;;;4.05;3.65;;;;;;;12.5;76.62109;94844.45;;;;
2022/04/26 09:45:17;;;;;;;4.05;3.65;;;;;;;12.5;76.62109;94844.45;;;;
2022/04/26 09:46:17;;;;;;;4.65;4.149999;;;;;;;12.07;77.2041;94855.69;;;;
2022/04/26 09:47:18;;;;;;;4.65;4.149999;;;;;;;12.07;77.2041;94855.69;;;;
2022/04/26 09:48:35;;;;;;;4.65;4.149999;;;;;;;12.07;77.2041;94855.69;;;;
2022/04/26 09:49:38;;;;;;;4.65;4.149999;;;;;;;12.07;77.2041;94855.69;;;;
2022/04/26 09:50:39;;;;;;;4.65;4.149999;;;;;;;12.07;77.2041;94855.69;;;;
2022/04/26 09:51:39;;;;;;;4.65;4.149999;;;;;;;12.07;77.2041;94855.69;;;;
2022/04/26 09:52:41;;;;;;;4.65;4.149999;;;;;;;12.07;77.2041;94855.69;;;;
2022/04/26 09:53:42;;;;;;;4.65;4.149999;;;;;;;12.07;77.2041;94855.69;;;;
2022/04/26 09:54:45;;;;;;;4.65;4.149999;;;;;;;12.07;77.2041;94855.69;;;;
2022/04/26 09:55:46;;;;;;;4.65;4.149999;;;;;;;12.07;77.2041;94855.69;;;;
2022/04/26 09:56:47;;;;;;;0;0;;;;;;;0;0;0;;;;